Wan Hai 508 — 9VJJ6 — position and weather

sailwx.info

Track history (hours):
 
Tides and Currents Weather Stations Pressure Air Temp Water Temp Dewpoint Dewpoint Depression Visibility Wind Speed Wind Dir Waves Ship Positions

Wan Hai 508

Last reported at 2017-Jul-13 17:46 UTC. Time now 2017-Jul-22 02:54 UTC.
Position N 01°15' E 103°25'.
Warning: this ship's position is 8 days out of date.

Length 269 m; draft 10.9 m.

Type: Cargo ship. MMSI: 565567000.

Date/timePositionNaut miles runAvg speedWind from/ knotsBaromVisibWave heightAir tempDewpointWater temp
2017-Jul-13 17:46N 01°15' E 103°25'518.5
2017-Jul-13 17:30N 01°13' E 103°29'917.5
2017-Jul-13 17:00N 01°12' E 103°38'3 6.9
2017-Jul-13 16:31N 01°13' E 103°41'510.6
2017-Jul-13 16:01N 01°16' E 103°46'1 1.9
2017-Jul-13 15:31N 01°16' E 103°47'0 0.0
2017-Jul-13 14:55N 01°16' E 103°47'0 0.0
2017-Jul-13 14:28N 01°16' E 103°47'0 0.0
2017-Jul-13 13:58N 01°16' E 103°47'0 0.0
2017-Jul-13 13:28N 01°16' E 103°47'0 0.0
2017-Jul-13 12:58N 01°16' E 103°47'0 0.0
2017-Jul-13 12:28N 01°16' E 103°47'0 0.0
2017-Jul-13 11:58N 01°16' E 103°47'0 0.0
2017-Jul-13 11:28N 01°16' E 103°47'0 0.0
2017-Jul-13 10:58N 01°16' E 103°47'0 0.0
2017-Jul-13 10:28N 01°16' E 103°47'0 0.0
2017-Jul-13 09:58N 01°16' E 103°47'0 0.0
2017-Jul-13 09:28N 01°16' E 103°47'0 0.0
2017-Jul-13 08:58N 01°16' E 103°47'0 0.0
2017-Jul-13 08:28N 01°16' E 103°47'0 0.0
2017-Jul-13 07:58N 01°16' E 103°47'0 0.0
2017-Jul-13 07:28N 01°16' E 103°47'0 0.0
2017-Jul-13 06:58N 01°16' E 103°47'0 0.0
2017-Jul-13 06:28N 01°16' E 103°47'0 0.0
2017-Jul-13 05:55N 01°16' E 103°47'0 0.3
2017-Jul-13 05:30N 01°15' E 103°47'2 4.9
2017-Jul-13 05:00N 01°13' E 103°48'4 8.7
2017-Jul-13 04:30N 01°14' E 103°52'3 5.1
2017-Jul-13 04:00N 01°16' E 103°50'0 0.1
2017-Jul-13 03:29N 01°16' E 103°50'0 0.0
2017-Jul-13 02:56N 01°16' E 103°50'0 0.0
2017-Jul-13 02:29N 01°16' E 103°50'0 0.0
2017-Jul-13 01:59N 01°16' E 103°50'0 0.0
2017-Jul-13 01:26N 01°16' E 103°50'0 0.0
2017-Jul-13 00:50N 01°16' E 103°50'0 0.0
2017-Jul-13 00:20N 01°16' E 103°50'0 0.0
2017-Jul-12 23:59N 01°16' E 103°50'0 0.0
2017-Jul-12 23:26N 01°16' E 103°50'0 0.0
2017-Jul-12 22:59N 01°16' E 103°50'0 0.0
2017-Jul-12 22:23N 01°16' E 103°50'0 0.0
2017-Jul-12 21:59N 01°16' E 103°50'0 0.0
2017-Jul-12 21:20N 01°16' E 103°50'0 0.0
2017-Jul-12 20:56N 01°16' E 103°50'0 0.0
2017-Jul-12 20:23N 01°16' E 103°50'0 0.0
2017-Jul-12 19:59N 01°16' E 103°50'0 0.0
2017-Jul-12 19:17N 01°16' E 103°50'0 0.0
2017-Jul-12 18:53N 01°16' E 103°50'0 0.0
2017-Jul-12 18:26N 01°16' E 103°50'0 0.0
2017-Jul-12 17:56N 01°16' E 103°50'0 0.0
2017-Jul-12 17:26N 01°16' E 103°50'0 0.0
2017-Jul-12 16:56N 01°16' E 103°50'0 0.0
2017-Jul-12 16:26N 01°16' E 103°50'0 0.0
2017-Jul-12 15:56N 01°16' E 103°50'0 0.0
2017-Jul-12 15:29N 01°16' E 103°50'0 0.0
2017-Jul-12 14:59N 01°16' E 103°50'0 0.3
2017-Jul-12 14:01N 01°16' E 103°50'1 2.7
2017-Jul-12 13:30N 01°15' E 103°51'2 3.1
2017-Jul-12 13:00N 01°14' E 103°53'1 2.8
2017-Jul-12 12:30N 01°14' E 103°54'2 4.3
2017-Jul-12 12:00N 01°12' E 103°53'5 9.2
2017-Jul-12 11:31N 01°10' E 103°49'611.3
2017-Jul-12 11:00N 01°06' E 103°45'612.6
2017-Jul-12 10:30N 01°03' E 103°39'712.6
2017-Jul-12 09:58N 01°06' E 103°33'510.3
2017-Jul-12 09:30N 01°09' E 103°29'5 9.9
2017-Jul-12 08:59N 01°12' E 103°25'  
Track history (hours):
 
Tides and Currents Weather Stations Pressure Air Temp Water Temp Dewpoint Dewpoint Depression Visibility Wind Speed Wind Dir Waves Ship Positions

Wan Hai 508

Last reported at 2017-Jul-13 17:46 UTC. Time now 2017-Jul-22 02:54 UTC.
Position N 01°15' E 103°25'.
Warning: this ship's position is 8 days out of date.

Length 269 m; draft 10.9 m.

Type: Cargo ship. MMSI: 565567000.

Date/timePositionNaut miles runAvg speedWind from/ knotsBaromVisibWave heightAir tempDewpointWater temp
2017-Jul-13 17:46N 01°15' E 103°25'518.5
2017-Jul-13 17:30N 01°13' E 103°29'917.5
2017-Jul-13 17:00N 01°12' E 103°38'3 6.9
2017-Jul-13 16:31N 01°13' E 103°41'510.6
2017-Jul-13 16:01N 01°16' E 103°46'1 1.9
2017-Jul-13 15:31N 01°16' E 103°47'0 0.0
2017-Jul-13 14:55N 01°16' E 103°47'0 0.0
2017-Jul-13 14:28N 01°16' E 103°47'0 0.0
2017-Jul-13 13:58N 01°16' E 103°47'0 0.0
2017-Jul-13 13:28N 01°16' E 103°47'0 0.0
2017-Jul-13 12:58N 01°16' E 103°47'0 0.0
2017-Jul-13 12:28N 01°16' E 103°47'0 0.0
2017-Jul-13 11:58N 01°16' E 103°47'0 0.0
2017-Jul-13 11:28N 01°16' E 103°47'0 0.0
2017-Jul-13 10:58N 01°16' E 103°47'0 0.0
2017-Jul-13 10:28N 01°16' E 103°47'0 0.0
2017-Jul-13 09:58N 01°16' E 103°47'0 0.0
2017-Jul-13 09:28N 01°16' E 103°47'0 0.0
2017-Jul-13 08:58N 01°16' E 103°47'0 0.0
2017-Jul-13 08:28N 01°16' E 103°47'0 0.0
2017-Jul-13 07:58N 01°16' E 103°47'0 0.0
2017-Jul-13 07:28N 01°16' E 103°47'0 0.0
2017-Jul-13 06:58N 01°16' E 103°47'0 0.0
2017-Jul-13 06:28N 01°16' E 103°47'0 0.0
2017-Jul-13 05:55N 01°16' E 103°47'0 0.3
2017-Jul-13 05:30N 01°15' E 103°47'2 4.9
2017-Jul-13 05:00N 01°13' E 103°48'4 8.7
2017-Jul-13 04:30N 01°14' E 103°52'3 5.1
2017-Jul-13 04:00N 01°16' E 103°50'0 0.1
2017-Jul-13 03:29N 01°16' E 103°50'0 0.0
2017-Jul-13 02:56N 01°16' E 103°50'0 0.0
2017-Jul-13 02:29N 01°16' E 103°50'0 0.0
2017-Jul-13 01:59N 01°16' E 103°50'0 0.0
2017-Jul-13 01:26N 01°16' E 103°50'0 0.0
2017-Jul-13 00:50N 01°16' E 103°50'0 0.0
2017-Jul-13 00:20N 01°16' E 103°50'0 0.0
2017-Jul-12 23:59N 01°16' E 103°50'0 0.0
2017-Jul-12 23:26N 01°16' E 103°50'0 0.0
2017-Jul-12 22:59N 01°16' E 103°50'0 0.0
2017-Jul-12 22:23N 01°16' E 103°50'0 0.0
2017-Jul-12 21:59N 01°16' E 103°50'0 0.0
2017-Jul-12 21:20N 01°16' E 103°50'0 0.0
2017-Jul-12 20:56N 01°16' E 103°50'0 0.0
2017-Jul-12 20:23N 01°16' E 103°50'0 0.0
2017-Jul-12 19:59N 01°16' E 103°50'0 0.0
2017-Jul-12 19:17N 01°16' E 103°50'0 0.0
2017-Jul-12 18:53N 01°16' E 103°50'0 0.0
2017-Jul-12 18:26N 01°16' E 103°50'0 0.0
2017-Jul-12 17:56N 01°16' E 103°50'0 0.0
2017-Jul-12 17:26N 01°16' E 103°50'0 0.0
2017-Jul-12 16:56N 01°16' E 103°50'0 0.0
2017-Jul-12 16:26N 01°16' E 103°50'0 0.0
2017-Jul-12 15:56N 01°16' E 103°50'0 0.0
2017-Jul-12 15:29N 01°16' E 103°50'0 0.0
2017-Jul-12 14:59N 01°16' E 103°50'0 0.3
2017-Jul-12 14:01N 01°16' E 103°50'1 2.7
2017-Jul-12 13:30N 01°15' E 103°51'2 3.1
2017-Jul-12 13:00N 01°14' E 103°53'1 2.8
2017-Jul-12 12:30N 01°14' E 103°54'2 4.3
2017-Jul-12 12:00N 01°12' E 103°53'5 9.2
2017-Jul-12 11:31N 01°10' E 103°49'611.3
2017-Jul-12 11:00N 01°06' E 103°45'612.6
2017-Jul-12 10:30N 01°03' E 103°39'712.6
2017-Jul-12 09:58N 01°06' E 103°33'510.3
2017-Jul-12 09:30N 01°09' E 103°29'5 9.9
2017-Jul-12 08:59N 01°12' E 103°25'  

Dump ship's entire track history